sensor_id;sensor_type;location;lat;lon;timestamp;pressure;altitude;pressure_sealevel;temperature;humidity
62333;BME280;48624;49.812;8.562;2023-05-09T00:01:56;100847.19;;;15.87;100.00
62333;BME280;48624;49.812;8.562;2023-05-09T00:04:22;100851.56;;;15.88;100.00
62333;BME280;48624;49.812;8.562;2023-05-09T00:06:48;100855.69;;;15.92;100.00
62333;BME280;48624;49.812;8.562;2023-05-09T00:09:13;100854.59;;;15.95;100.00
62333;BME280;48624;49.812;8.562;2023-05-09T00:11:38;100849.38;;;15.93;100.00
62333;BME280;48624;49.812;8.562;2023-05-09T00:14:04;100852.88;;;15.94;100.00
62333;BME280;48624;49.812;8.562;2023-05-09T00:16:29;100847.56;;;15.82;100.00
62333;BME280;48624;49.812;8.562;2023-05-09T00:18:57;100843.13;;;15.72;100.00
62333;BME280;48624;49.812;8.562;2023-05-09T00:21:22;100841.75;;;15.77;100.00
62333;BME280;48624;49.812;8.562;2023-05-09T00:23:48;100842.13;;;15.84;100.00
62333;BME280;48624;49.812;8.562;2023-05-09T00:26:13;100842.69;;;15.66;100.00
62333;BME280;48624;49.812;8.562;2023-05-09T00:28:38;100837.72;;;15.62;100.00
62333;BME280;48624;49.812;8.562;2023-05-09T00:31:03;100838.56;;;15.62;100.00
62333;BME280;48624;49.812;8.562;2023-05-09T00:33:29;100835.75;;;15.64;100.00
62333;BME280;48624;49.812;8.562;2023-05-09T00:35:54;100829.06;;;15.70;100.00
62333;BME280;48624;49.812;8.562;2023-05-09T00:38:21;100832.66;;;15.80;100.00
62333;BME280;48624;49.812;8.562;2023-05-09T00:40:46;100823.53;;;15.82;100.00
62333;BME280;48624;49.812;8.562;2023-05-09T00:43:12;100822.56;;;15.84;100.00
62333;BME280;48624;49.812;8.562;2023-05-09T00:45:37;100824.91;;;15.77;100.00
62333;BME280;48624;49.812;8.562;2023-05-09T00:48:02;100818.69;;;15.76;100.00
62333;BME280;48624;49.812;8.562;2023-05-09T00:50:28;100813.25;;;15.78;100.00
62333;BME280;48624;49.812;8.562;2023-05-09T00:52:53;100812.13;;;15.80;100.00
62333;BME280;48624;49.812;8.562;2023-05-09T00:55:18;100816.94;;;15.87;100.00
62333;BME280;48624;49.812;8.562;2023-05-09T00:57:44;100819.50;;;15.88;100.00
62333;BME280;48624;49.812;8.562;2023-05-09T01:00:10;100814.06;;;15.78;100.00
62333;BME280;48624;49.812;8.562;2023-05-09T01:02:42;100812.00;;;15.82;100.00
62333;BME280;48624;49.812;8.562;2023-05-09T01:05:08;100810.09;;;15.73;100.00
62333;BME280;48624;49.812;8.562;2023-05-09T01:10:25;100797.47;;;15.75;99.05
62333;BME280;48624;49.812;8.562;2023-05-09T01:13:11;100796.94;;;15.81;98.93
62333;BME280;48624;49.812;8.562;2023-05-09T01:15:48;100795.16;;;15.49;100.00
62333;BME280;48624;49.812;8.562;2023-05-09T01:18:20;100797.19;;;15.57;100.00
62333;BME280;48624;49.812;8.562;2023-05-09T01:29:46;100785.75;;;15.33;100.00
62333;BME280;48624;49.812;8.562;2023-05-09T01:32:18;100776.66;;;15.36;100.00
62333;BME280;48624;49.812;8.562;2023-05-09T01:34:48;100784.88;;;15.44;100.00
62333;BME280;48624;49.812;8.562;2023-05-09T01:37:18;100782.78;;;15.48;100.00
62333;BME280;48624;49.812;8.562;2023-05-09T01:39:46;100785.91;;;15.53;100.00
62333;BME280;48624;49.812;8.562;2023-05-09T01:42:15;100780.25;;;15.46;100.00
62333;BME280;48624;49.812;8.562;2023-05-09T01:44:44;100774.91;;;15.46;100.00
62333;BME280;48624;49.812;8.562;2023-05-09T01:47:11;100765.00;;;15.37;100.00
62333;BME280;48624;49.812;8.562;2023-05-09T01:49:38;100762.31;;;15.37;100.00
62333;BME280;48624;49.812;8.562;2023-05-09T01:52:14;100757.38;;;15.32;100.00
62333;BME280;48624;49.812;8.562;2023-05-09T01:54:41;100758.94;;;15.35;100.00
62333;BME280;48624;49.812;8.562;2023-05-09T01:57:10;100760.91;;;15.33;100.00
62333;BME280;48624;49.812;8.562;2023-05-09T01:59:38;100769.84;;;15.32;100.00
62333;BME280;48624;49.812;8.562;2023-05-09T02:02:06;100759.31;;;15.30;100.00
62333;BME280;48624;49.812;8.562;2023-05-09T02:04:32;100763.72;;;15.20;100.00
62333;BME280;48624;49.812;8.562;2023-05-09T02:07:00;100764.88;;;15.06;100.00
62333;BME280;48624;49.812;8.562;2023-05-09T02:09:26;100759.19;;;14.99;100.00
62333;BME280;48624;49.812;8.562;2023-05-09T02:11:52;100761.50;;;15.04;100.00
62333;BME280;48624;49.812;8.562;2023-05-09T02:14:18;100761.59;;;15.02;100.00
62333;BME280;48624;49.812;8.562;2023-05-09T02:16:43;100761.88;;;14.99;100.00
62333;BME280;48624;49.812;8.562;2023-05-09T02:19:09;100758.22;;;14.89;100.00
62333;BME280;48624;49.812;8.562;2023-05-09T02:21:34;100750.22;;;14.89;100.00
62333;BME280;48624;49.812;8.562;2023-05-09T02:24:00;100757.06;;;14.81;100.00
62333;BME280;48624;49.812;8.562;2023-05-09T02:26:27;100746.53;;;14.34;100.00
62333;BME280;48624;49.812;8.562;2023-05-09T02:28:54;100741.31;;;14.44;100.00
62333;BME280;48624;49.812;8.562;2023-05-09T02:31:21;100742.53;;;14.51;100.00
62333;BME280;48624;49.812;8.562;2023-05-09T02:33:48;100739.38;;;14.46;100.00
62333;BME280;48624;49.812;8.562;2023-05-09T02:36:17;100731.88;;;14.51;100.00
62333;BME280;48624;49.812;8.562;2023-05-09T02:38:43;100739.63;;;14.43;100.00
62333;BME280;48624;49.812;8.562;2023-05-09T02:41:13;100742.50;;;14.40;100.00
62333;BME280;48624;49.812;8.562;2023-05-09T02:43:38;100737.06;;;14.41;100.00
62333;BME280;48624;49.812;8.562;2023-05-09T02:46:04;100744.00;;;14.33;100.00
62333;BME280;48624;49.812;8.562;2023-05-09T02:48:29;100735.84;;;14.34;100.00
62333;BME280;48624;49.812;8.562;2023-05-09T02:50:54;100738.06;;;14.29;100.00
62333;BME280;48624;49.812;8.562;2023-05-09T02:53:21;100734.06;;;14.23;100.00
62333;BME280;48624;49.812;8.562;2023-05-09T02:55:46;100734.06;;;14.23;100.00
62333;BME280;48624;49.812;8.562;2023-05-09T02:58:11;100741.91;;;14.25;100.00
62333;BME280;48624;49.812;8.562;2023-05-09T03:00:37;100742.63;;;14.15;100.00
62333;BME280;48624;49.812;8.562;2023-05-09T03:03:02;100741.31;;;13.98;100.00
62333;BME280;48624;49.812;8.562;2023-05-09T03:05:27;100742.53;;;13.94;100.00
62333;BME280;48624;49.812;8.562;2023-05-09T03:07:53;100736.00;;;13.51;100.00
62333;BME280;48624;49.812;8.562;2023-05-09T03:10:18;100733.94;;;13.55;100.00
62333;BME280;48624;49.812;8.562;2023-05-09T03:12:43;100738.34;;;13.67;100.00
62333;BME280;48624;49.812;8.562;2023-05-09T03:15:09;100731.94;;;13.70;100.00
62333;BME280;48624;49.812;8.562;2023-05-09T03:17:34;100723.84;;;13.71;100.00
62333;BME280;48624;49.812;8.562;2023-05-09T03:20:00;100724.44;;;13.64;100.00
62333;BME280;48624;49.812;8.562;2023-05-09T03:22:25;100722.81;;;13.50;100.00
62333;BME280;48624;49.812;8.562;2023-05-09T03:24:51;100718.13;;;13.53;100.00
62333;BME280;48624;49.812;8.562;2023-05-09T03:27:16;100710.75;;;13.57;100.00
62333;BME280;48624;49.812;8.562;2023-05-09T03:29:41;100711.66;;;13.44;100.00
62333;BME280;48624;49.812;8.562;2023-05-09T03:32:07;100709.50;;;13.50;100.00
62333;BME280;48624;49.812;8.562;2023-05-09T03:34:32;100702.34;;;13.50;100.00
62333;BME280;48624;49.812;8.562;2023-05-09T03:36:58;100698.97;;;13.48;100.00
62333;BME280;48624;49.812;8.562;2023-05-09T03:39:23;100712.91;;;13.52;100.00
62333;BME280;48624;49.812;8.562;2023-05-09T03:41:48;100702.88;;;13.55;100.00
62333;BME280;48624;49.812;8.562;2023-05-09T03:44:14;100706.59;;;13.53;100.00
62333;BME280;48624;49.812;8.562;2023-05-09T03:46:39;100702.63;;;13.58;100.00
62333;BME280;48624;49.812;8.562;2023-05-09T03:49:05;100709.72;;;13.46;100.00
62333;BME280;48624;49.812;8.562;2023-05-09T03:51:30;100709.63;;;13.48;100.00
62333;BME280;48624;49.812;8.562;2023-05-09T03:53:56;100717.72;;;13.46;100.00
62333;BME280;48624;49.812;8.562;2023-05-09T03:56:22;100716.78;;;13.48;100.00
62333;BME280;48624;49.812;8.562;2023-05-09T03:58:47;100716.97;;;13.44;100.00
62333;BME280;48624;49.812;8.562;2023-05-09T04:01:13;100722.81;;;13.50;100.00
62333;BME280;48624;49.812;8.562;2023-05-09T04:03:39;100719.31;;;13.49;100.00
62333;BME280;48624;49.812;8.562;2023-05-09T04:06:04;100726.09;;;13.53;100.00
62333;BME280;48624;49.812;8.562;2023-05-09T04:08:31;100720.03;;;13.51;100.00
62333;BME280;48624;49.812;8.562;2023-05-09T04:10:56;100714.13;;;13.48;100.00
62333;BME280;48624;49.812;8.562;2023-05-09T04:13:22;100716.28;;;13.54;100.00
62333;BME280;48624;49.812;8.562;2023-05-09T04:15:47;100708.47;;;13.64;100.00
62333;BME280;48624;49.812;8.562;2023-05-09T04:18:12;100706.63;;;13.64;100.00
62333;BME280;48624;49.812;8.562;2023-05-09T04:20:38;100702.63;;;13.70;100.00
62333;BME280;48624;49.812;8.562;2023-05-09T04:23:03;100707.25;;;13.79;100.00
62333;BME280;48624;49.812;8.562;2023-05-09T04:25:28;100706.06;;;13.83;100.00
62333;BME280;48624;49.812;8.562;2023-05-09T04:27:55;100703.03;;;13.88;100.00
62333;BME280;48624;49.812;8.562;2023-05-09T04:30:21;100699.91;;;13.94;100.00
62333;BME280;48624;49.812;8.562;2023-05-09T04:32:46;100707.03;;;13.94;100.00
62333;BME280;48624;49.812;8.562;2023-05-09T04:35:13;100709.34;;;13.87;100.00
62333;BME280;48624;49.812;8.562;2023-05-09T04:37:38;100707.66;;;13.86;100.00
62333;BME280;48624;49.812;8.562;2023-05-09T04:40:06;100703.16;;;13.98;100.00
62333;BME280;48624;49.812;8.562;2023-05-09T04:42:33;100706.78;;;13.97;100.00
62333;BME280;48624;49.812;8.562;2023-05-09T04:45:02;100705.59;;;14.01;100.00
62333;BME280;48624;49.812;8.562;2023-05-09T04:47:27;100703.03;;;13.88;100.00
62333;BME280;48624;49.812;8.562;2023-05-09T04:49:53;100700.03;;;13.93;100.00
62333;BME280;48624;49.812;8.562;2023-05-09T04:52:18;100694.69;;;13.93;100.00
62333;BME280;48624;49.812;8.562;2023-05-09T04:54:44;100696.75;;;13.89;100.00
62333;BME280;48624;49.812;8.562;2023-05-09T04:57:09;100697.81;;;13.98;100.00
62333;BME280;48624;49.812;8.562;2023-05-09T04:59:35;100701.81;;;14.04;100.00
62333;BME280;48624;49.812;8.562;2023-05-09T05:02:00;100700.53;;;14.09;100.00
62333;BME280;48624;49.812;8.562;2023-05-09T05:04:26;100695.41;;;14.18;100.00
62333;BME280;48624;49.812;8.562;2023-05-09T05:06:52;100687.03;;;14.22;100.00
62333;BME280;48624;49.812;8.562;2023-05-09T05:09:17;100687.66;;;14.37;100.00
62333;BME280;48624;49.812;8.562;2023-05-09T05:11:42;100691.03;;;14.51;100.00
62333;BME280;48624;49.812;8.562;2023-05-09T05:14:08;100689.78;;;14.55;100.00
62333;BME280;48624;49.812;8.562;2023-05-09T05:16:33;100681.53;;;14.69;100.00
62333;BME280;48624;49.812;8.562;2023-05-09T05:18:58;100684.19;;;14.69;100.00
62333;BME280;48624;49.812;8.562;2023-05-09T05:21:24;100687.63;;;14.49;100.00
62333;BME280;48624;49.812;8.562;2023-05-09T05:23:49;100684.91;;;14.71;100.00
62333;BME280;48624;49.812;8.562;2023-05-09T05:26:14;100684.44;;;14.66;100.00
62333;BME280;48624;49.812;8.562;2023-05-09T05:28:40;100672.59;;;14.59;100.00
62333;BME280;48624;49.812;8.562;2023-05-09T05:31:05;100680.16;;;14.87;100.00
62333;BME280;48624;49.812;8.562;2023-05-09T05:33:30;100680.19;;;14.75;100.00
62333;BME280;48624;49.812;8.562;2023-05-09T05:35:56;100677.44;;;14.98;100.00
62333;BME280;48624;49.812;8.562;2023-05-09T05:38:21;100677.66;;;15.06;100.00
62333;BME280;48624;49.812;8.562;2023-05-09T05:40:46;100676.16;;;15.14;100.00
62333;BME280;48624;49.812;8.562;2023-05-09T05:43:12;100674.34;;;15.35;100.00
62333;BME280;48624;49.812;8.562;2023-05-09T05:45:37;100668.09;;;15.46;100.00
62333;BME280;48624;49.812;8.562;2023-05-09T05:48:02;100676.91;;;15.58;100.00
62333;BME280;48624;49.812;8.562;2023-05-09T05:50:28;100670.47;;;15.39;100.00
62333;BME280;48624;49.812;8.562;2023-05-09T05:52:54;100666.53;;;15.44;100.00
62333;BME280;48624;49.812;8.562;2023-05-09T05:55:20;100673.44;;;15.46;100.00
62333;BME280;48624;49.812;8.562;2023-05-09T05:57:46;100668.34;;;15.64;100.00
62333;BME280;48624;49.812;8.562;2023-05-09T06:00:12;100668.81;;;15.70;100.00
62333;BME280;48624;49.812;8.562;2023-05-09T06:02:41;100666.13;;;15.70;100.00
62333;BME280;48624;49.812;8.562;2023-05-09T06:05:09;100667.44;;;15.75;100.00
62333;BME280;48624;49.812;8.562;2023-05-09T06:07:34;100665.53;;;15.66;100.00
62333;BME280;48624;49.812;8.562;2023-05-09T06:09:59;100669.28;;;15.85;100.00
62333;BME280;48624;49.812;8.562;2023-05-09T06:12:25;100660.88;;;15.89;100.00
62333;BME280;48624;49.812;8.562;2023-05-09T06:14:50;100650.16;;;16.11;100.00
62333;BME280;48624;49.812;8.562;2023-05-09T06:17:15;100653.09;;;16.07;100.00
62333;BME280;48624;49.812;8.562;2023-05-09T06:19:41;100645.41;;;16.14;100.00
62333;BME280;48624;49.812;8.562;2023-05-09T06:22:07;100649.13;;;16.43;100.00
62333;BME280;48624;49.812;8.562;2023-05-09T06:24:33;100650.13;;;16.61;99.12
62333;BME280;48624;49.812;8.562;2023-05-09T06:26:59;100640.84;;;16.75;98.44
62333;BME280;48624;49.812;8.562;2023-05-09T06:29:24;100628.75;;;16.81;97.01
62333;BME280;48624;49.812;8.562;2023-05-09T06:31:49;100647.91;;;16.86;96.18
62333;BME280;48624;49.812;8.562;2023-05-09T06:34:15;100637.19;;;16.96;96.39
62333;BME280;48624;49.812;8.562;2023-05-09T06:36:41;100641.44;;;17.09;95.24
62333;BME280;48624;49.812;8.562;2023-05-09T06:39:06;100634.53;;;16.86;94.54
62333;BME280;48624;49.812;8.562;2023-05-09T06:41:32;100634.78;;;16.83;95.67
62333;BME280;48624;49.812;8.562;2023-05-09T06:43:57;100638.91;;;17.17;95.34
62333;BME280;48624;49.812;8.562;2023-05-09T06:46:22;100630.16;;;17.25;94.99
62333;BME280;48624;49.812;8.562;2023-05-09T06:48:48;100624.81;;;17.15;95.90
62333;BME280;48624;49.812;8.562;2023-05-09T06:51:13;100629.84;;;17.28;94.27
62333;BME280;48624;49.812;8.562;2023-05-09T06:53:38;100623.31;;;17.50;94.01
62333;BME280;48624;49.812;8.562;2023-05-09T06:56:04;100625.75;;;17.33;93.63
62333;BME280;48624;49.812;8.562;2023-05-09T06:58:29;100625.56;;;17.55;93.42
62333;BME280;48624;49.812;8.562;2023-05-09T07:00:55;100622.94;;;17.73;93.47
62333;BME280;48624;49.812;8.562;2023-05-09T07:03:20;100611.75;;;17.87;91.97
62333;BME280;48624;49.812;8.562;2023-05-09T07:05:46;100612.88;;;17.85;91.78
62333;BME280;48624;49.812;8.562;2023-05-09T07:08:11;100605.53;;;18.25;89.27
62333;BME280;48624;49.812;8.562;2023-05-09T07:10:37;100602.69;;;18.26;87.53
62333;BME280;48624;49.812;8.562;2023-05-09T07:13:03;100589.28;;;17.98;89.02
62333;BME280;48624;49.812;8.562;2023-05-09T07:15:28;100587.09;;;17.84;90.72
62333;BME280;48624;49.812;8.562;2023-05-09T07:17:54;100583.47;;;18.03;90.74
62333;BME280;48624;49.812;8.562;2023-05-09T07:20:19;100591.22;;;17.78;89.55
62333;BME280;48624;49.812;8.562;2023-05-09T07:22:44;100593.72;;;17.52;88.96
62333;BME280;48624;49.812;8.562;2023-05-09T07:25:10;100593.09;;;17.96;90.07
62333;BME280;48624;49.812;8.562;2023-05-09T07:27:35;100590.66;;;18.02;88.95
62333;BME280;48624;49.812;8.562;2023-05-09T07:30:03;100587.28;;;18.28;89.05
62333;BME280;48624;49.812;8.562;2023-05-09T07:32:28;100577.25;;;18.12;87.93
62333;BME280;48624;49.812;8.562;2023-05-09T07:34:54;100581.16;;;17.90;87.36
62333;BME280;48624;49.812;8.562;2023-05-09T07:37:19;100567.22;;;18.14;87.36
62333;BME280;48624;49.812;8.562;2023-05-09T07:39:46;100563.22;;;18.19;86.50
62333;BME280;48624;49.812;8.562;2023-05-09T07:42:12;100560.00;;;18.15;86.61
62333;BME280;48624;49.812;8.562;2023-05-09T07:44:37;100573.94;;;18.19;86.41
62333;BME280;48624;49.812;8.562;2023-05-09T07:47:02;100572.88;;;18.29;86.34
62333;BME280;48624;49.812;8.562;2023-05-09T07:49:29;100568.75;;;18.35;86.79
62333;BME280;48624;49.812;8.562;2023-05-09T07:51:54;100568.50;;;18.47;86.22
62333;BME280;48624;49.812;8.562;2023-05-09T07:54:20;100559.47;;;18.66;85.21
62333;BME280;48624;49.812;8.562;2023-05-09T07:56:45;100564.41;;;18.97;84.35
62333;BME280;48624;49.812;8.562;2023-05-09T07:59:10;100558.94;;;18.44;84.29
62333;BME280;48624;49.812;8.562;2023-05-09T08:01:36;100558.00;;;18.71;83.89
62333;BME280;48624;49.812;8.562;2023-05-09T08:04:01;100555.81;;;18.93;83.80
62333;BME280;48624;49.812;8.562;2023-05-09T08:06:29;100553.00;;;18.77;83.79
62333;BME280;48624;49.812;8.562;2023-05-09T08:08:54;100554.19;;;18.56;84.30
62333;BME280;48624;49.812;8.562;2023-05-09T08:11:19;100550.72;;;18.64;83.77
62333;BME280;48624;49.812;8.562;2023-05-09T08:13:45;100535.63;;;18.63;83.99
62333;BME280;48624;49.812;8.562;2023-05-09T08:16:12;100544.84;;;18.60;83.57
62333;BME280;48624;49.812;8.562;2023-05-09T08:18:37;100536.53;;;18.71;83.78
62333;BME280;48624;49.812;8.562;2023-05-09T08:21:02;100527.22;;;18.57;83.84
62333;BME280;48624;49.812;8.562;2023-05-09T08:23:28;100528.22;;;18.83;82.98
62333;BME280;48624;49.812;8.562;2023-05-09T08:25:54;100510.13;;;18.85;82.85
62333;BME280;48624;49.812;8.562;2023-05-09T08:28:20;100512.72;;;18.95;83.55
62333;BME280;48624;49.812;8.562;2023-05-09T08:30:51;100510.50;;;18.90;83.42
62333;BME280;48624;49.812;8.562;2023-05-09T08:33:17;100505.97;;;19.09;83.20
62333;BME280;48624;49.812;8.562;2023-05-09T08:35:43;100492.19;;;18.85;82.63
62333;BME280;48624;49.812;8.562;2023-05-09T08:38:08;100501.78;;;18.88;84.48
62333;BME280;48624;49.812;8.562;2023-05-09T08:40:35;100504.47;;;19.15;82.43
62333;BME280;48624;49.812;8.562;2023-05-09T08:43:02;100501.19;;;19.29;82.41
62333;BME280;48624;49.812;8.562;2023-05-09T08:45:30;100500.53;;;19.01;82.32
62333;BME280;48624;49.812;8.562;2023-05-09T08:47:57;100502.44;;;18.90;83.24
62333;BME280;48624;49.812;8.562;2023-05-09T08:50:23;100497.34;;;19.32;82.53
62333;BME280;48624;49.812;8.562;2023-05-09T08:52:50;100500.88;;;19.32;82.42
62333;BME280;48624;49.812;8.562;2023-05-09T08:55:15;100497.41;;;19.13;82.37
62333;BME280;48624;49.812;8.562;2023-05-09T08:57:41;100494.41;;;19.17;82.32
62333;BME280;48624;49.812;8.562;2023-05-09T09:00:07;100486.34;;;19.51;81.43
62333;BME280;48624;49.812;8.562;2023-05-09T09:02:36;100482.19;;;19.65;81.91
62333;BME280;48624;49.812;8.562;2023-05-09T09:05:04;100483.31;;;19.46;82.58
62333;BME280;48624;49.812;8.562;2023-05-09T09:07:32;100476.69;;;19.75;81.30
62333;BME280;48624;49.812;8.562;2023-05-09T09:09:59;100473.81;;;19.85;80.67
62333;BME280;48624;49.812;8.562;2023-05-09T09:12:25;100474.16;;;19.82;79.97
62333;BME280;48624;49.812;8.562;2023-05-09T09:14:52;100462.88;;;19.70;80.20
62333;BME280;48624;49.812;8.562;2023-05-09T09:17:22;100463.78;;;19.95;79.60
62333;BME280;48624;49.812;8.562;2023-05-09T09:19:54;100461.47;;;20.01;78.79
62333;BME280;48624;49.812;8.562;2023-05-09T09:22:20;100455.91;;;20.35;79.18
62333;BME280;48624;49.812;8.562;2023-05-09T09:24:46;100461.81;;;20.22;77.54
62333;BME280;48624;49.812;8.562;2023-05-09T09:27:11;100456.28;;;20.49;77.10
62333;BME280;48624;49.812;8.562;2023-05-09T09:29:37;100443.47;;;20.26;76.82
62333;BME280;48624;49.812;8.562;2023-05-09T09:32:06;100445.31;;;20.01;77.58
62333;BME280;48624;49.812;8.562;2023-05-09T09:34:32;100445.84;;;20.21;77.01
62333;BME280;48624;49.812;8.562;2023-05-09T09:36:57;100447.19;;;20.42;76.71
62333;BME280;48624;49.812;8.562;2023-05-09T09:39:23;100447.50;;;20.63;75.66
62333;BME280;48624;49.812;8.562;2023-05-09T09:41:48;100436.31;;;21.00;74.23
62333;BME280;48624;49.812;8.562;2023-05-09T09:44:18;100434.81;;;20.97;73.76
62333;BME280;48624;49.812;8.562;2023-05-09T09:46:46;100423.41;;;20.70;73.68
62333;BME280;48624;49.812;8.562;2023-05-09T09:49:13;100419.03;;;20.86;73.97
62333;BME280;48624;49.812;8.562;2023-05-09T09:51:40;100419.53;;;21.29;73.15
62333;BME280;48624;49.812;8.562;2023-05-09T09:54:09;100403.94;;;20.60;74.89
62333;BME280;48624;49.812;8.562;2023-05-09T09:56:49;100412.56;;;21.67;72.69
62333;BME280;48624;49.812;8.562;2023-05-09T09:59:16;100401.78;;;21.12;72.13
62333;BME280;48624;49.812;8.562;2023-05-09T10:01:59;100406.22;;;21.68;70.06
62333;BME280;48624;49.812;8.562;2023-05-09T10:04:33;100392.53;;;21.38;69.97
62333;BME280;48624;49.812;8.562;2023-05-09T10:07:03;100395.59;;;21.66;69.27
62333;BME280;48624;49.812;8.562;2023-05-09T10:09:30;100399.44;;;21.72;70.30
62333;BME280;48624;49.812;8.562;2023-05-09T10:12:03;100392.06;;;21.89;69.70
62333;BME280;48624;49.812;8.562;2023-05-09T10:14:30;100395.25;;;21.93;69.02
62333;BME280;48624;49.812;8.562;2023-05-09T10:16:56;100390.41;;;21.56;68.68
62333;BME280;48624;49.812;8.562;2023-05-09T10:19:24;100379.06;;;21.38;70.14
62333;BME280;48624;49.812;8.562;2023-05-09T10:21:52;100374.34;;;21.08;70.56
62333;BME280;48624;49.812;8.562;2023-05-09T10:24:33;100370.78;;;21.16;69.79
62333;BME280;48624;49.812;8.562;2023-05-09T10:27:05;100362.91;;;21.38;70.62
62333;BME280;48624;49.812;8.562;2023-05-09T10:29:37;100362.31;;;21.51;70.16
62333;BME280;48624;49.812;8.562;2023-05-09T10:32:17;100356.63;;;21.45;70.14
62333;BME280;48624;49.812;8.562;2023-05-09T10:34:50;100350.41;;;21.13;71.04
62333;BME280;48624;49.812;8.562;2023-05-09T10:37:16;100346.16;;;21.19;71.95
62333;BME280;48624;49.812;8.562;2023-05-09T10:39:43;100345.00;;;21.45;71.11
62333;BME280;48624;49.812;8.562;2023-05-09T10:42:08;100338.16;;;21.34;71.24
62333;BME280;48624;49.812;8.562;2023-05-09T10:44:36;100338.84;;;21.36;70.39
62333;BME280;48624;49.812;8.562;2023-05-09T10:47:02;100333.31;;;21.53;69.96
62333;BME280;48624;49.812;8.562;2023-05-09T10:49:29;100330.75;;;21.36;70.53
62333;BME280;48624;49.812;8.562;2023-05-09T10:51:56;100329.94;;;21.82;68.76
62333;BME280;48624;49.812;8.562;2023-05-09T10:54:29;100324.16;;;21.62;69.44
62333;BME280;48624;49.812;8.562;2023-05-09T10:56:57;100320.94;;;21.90;68.54
62333;BME280;48624;49.812;8.562;2023-05-09T11:02:00;100304.88;;;21.97;67.59
62333;BME280;48624;49.812;8.562;2023-05-09T11:04:27;100308.06;;;22.15;67.97
62333;BME280;48624;49.812;8.562;2023-05-09T11:06:53;100307.41;;;21.75;66.72
62333;BME280;48624;49.812;8.562;2023-05-09T11:09:32;100288.25;;;22.08;66.42
62333;BME280;48624;49.812;8.562;2023-05-09T11:14:39;100281.50;;;22.94;64.48
62333;BME280;48624;49.812;8.562;2023-05-09T11:22:25;100265.38;;;23.01;63.46
62333;BME280;48624;49.812;8.562;2023-05-09T11:24:59;100262.31;;;23.48;64.67
62333;BME280;48624;49.812;8.562;2023-05-09T11:27:27;100268.00;;;23.16;64.30
62333;BME280;48624;49.812;8.562;2023-05-09T11:29:54;100263.22;;;23.55;63.03
62333;BME280;48624;49.812;8.562;2023-05-09T11:32:21;100256.13;;;23.32;62.40
62333;BME280;48624;49.812;8.562;2023-05-09T11:34:50;100256.78;;;23.84;61.20
62333;BME280;48624;49.812;8.562;2023-05-09T11:37:16;100256.47;;;24.01;60.34
62333;BME280;48624;49.812;8.562;2023-05-09T11:39:59;100246.34;;;23.81;61.43
62333;BME280;48624;49.812;8.562;2023-05-09T11:42:30;100241.31;;;24.35;60.02
62333;BME280;48624;49.812;8.562;2023-05-09T11:44:58;100237.09;;;24.75;57.85
62333;BME280;48624;49.812;8.562;2023-05-09T11:47:24;100226.84;;;24.15;59.90
62333;BME280;48624;49.812;8.562;2023-05-09T11:49:51;100232.69;;;23.90;59.92
62333;BME280;48624;49.812;8.562;2023-05-09T11:52:19;100226.44;;;23.61;59.40
62333;BME280;48624;49.812;8.562;2023-05-09T11:54:45;100224.09;;;23.79;59.84
62333;BME280;48624;49.812;8.562;2023-05-09T11:57:11;100222.75;;;24.32;58.60
62333;BME280;48624;49.812;8.562;2023-05-09T11:59:43;100219.66;;;24.91;55.91
62333;BME280;48624;49.812;8.562;2023-05-09T12:02:09;100206.25;;;24.76;56.59
62333;BME280;48624;49.812;8.562;2023-05-09T12:04:35;100203.16;;;24.79;56.68
62333;BME280;48624;49.812;8.562;2023-05-09T12:07:01;100199.97;;;24.69;57.11
62333;BME280;48624;49.812;8.562;2023-05-09T12:09:31;100208.88;;;24.49;56.35
62333;BME280;48624;49.812;8.562;2023-05-09T12:11:57;100188.53;;;24.18;57.58
62333;BME280;48624;49.812;8.562;2023-05-09T12:14:31;100188.25;;;23.42;58.54
62333;BME280;48624;49.812;8.562;2023-05-09T12:16:57;100188.41;;;23.97;57.72
62333;BME280;48624;49.812;8.562;2023-05-09T12:19:23;100189.16;;;24.13;58.79
62333;BME280;48624;49.812;8.562;2023-05-09T12:21:57;100184.34;;;24.08;57.46
62333;BME280;48624;49.812;8.562;2023-05-09T12:24:23;100175.72;;;24.33;57.57
62333;BME280;48624;49.812;8.562;2023-05-09T12:26:51;100171.03;;;24.69;57.68
62333;BME280;48624;49.812;8.562;2023-05-09T12:29:17;100164.34;;;24.09;57.12
62333;BME280;48624;49.812;8.562;2023-05-09T12:31:43;100169.44;;;24.33;56.87
62333;BME280;48624;49.812;8.562;2023-05-09T12:34:09;100161.97;;;24.35;57.08
62333;BME280;48624;49.812;8.562;2023-05-09T12:36:35;100159.19;;;24.15;59.45
62333;BME280;48624;49.812;8.562;2023-05-09T12:39:01;100144.63;;;23.80;58.97
62333;BME280;48624;49.812;8.562;2023-05-09T12:41:27;100139.84;;;23.82;59.32
62333;BME280;48624;49.812;8.562;2023-05-09T12:43:53;100141.13;;;23.87;59.62
62333;BME280;48624;49.812;8.562;2023-05-09T12:46:20;100133.47;;;23.97;58.81
62333;BME280;48624;49.812;8.562;2023-05-09T12:48:46;100133.63;;;23.89;57.40
62333;BME280;48624;49.812;8.562;2023-05-09T12:51:17;100129.88;;;23.90;57.08
62333;BME280;48624;49.812;8.562;2023-05-09T12:53:44;100121.69;;;24.11;56.60
62333;BME280;48624;49.812;8.562;2023-05-09T12:56:18;100117.91;;;24.06;55.19
62333;BME280;48624;49.812;8.562;2023-05-09T12:59:02;100117.09;;;24.05;54.10
62333;BME280;48624;49.812;8.562;2023-05-09T13:01:28;100118.81;;;24.27;54.68
62333;BME280;48624;49.812;8.562;2023-05-09T13:04:01;100111.09;;;24.17;55.09
62333;BME280;48624;49.812;8.562;2023-05-09T13:06:27;100108.69;;;24.56;55.04